Time;durP1;ratioP1;P1;durP2;ratioP2;P2;SDS_P1;SDS_P2;PMS_P1;PMS_P2;Temp;Humidity;BMP_temperature;BMP_pressure;BME280_temperature;BME280_humidity;BME280_pressure;Samples;Min_cycle;Max_cycle;Signal;HPM_P1;HPM_P2
2021/01/14 00:03:44;;;;;;;5.83;2.70;;;1.30;94.90;;;;;;8373144;28;20836;-73
2021/01/14 00:07:46;;;;;;;7.68;3.33;;;1.70;96.30;;;;;;8392825;28;20453;-73
2021/01/14 00:11:48;;;;;;;3.53;1.10;;;1.20;95.40;;;;;;8398132;28;20055;-73
2021/01/14 00:15:50;;;;;;;9.13;3.28;;;1.40;95.90;;;;;;8412936;27;20056;-73
2021/01/14 00:19:51;;;;;;;7.47;2.85;;;2.30;96.80;;;;;;8374612;28;20044;-74
2021/01/14 00:23:53;;;;;;;7.53;3.15;;;1.30;96.30;;;;;;8377654;28;20356;-73
2021/01/14 00:27:55;;;;;;;8.40;3.35;;;1.10;96.40;;;;;;8364616;28;20044;-73
2021/01/14 00:31:57;;;;;;;6.30;2.95;;;1.40;96.50;;;;;;8376840;28;20105;-73
2021/01/14 00:35:58;;;;;;;9.57;2.92;;;1.30;96.50;;;;;;8416840;28;20044;-73
2021/01/14 00:40:00;;;;;;;7.83;2.97;;;1.40;96.40;;;;;;8385795;28;20055;-74
2021/01/14 00:44:01;;;;;;;5.90;2.70;;;1.30;96.40;;;;;;8391185;28;20518;-74
2021/01/14 00:48:03;;;;;;;6.20;3.08;;;1.40;96.30;;;;;;8375909;28;20451;-73
2021/01/14 00:52:05;;;;;;;2.88;1.60;;;1.40;96.40;;;;;;8397457;28;20093;-73
2021/01/14 00:56:06;;;;;;;8.10;2.90;;;1.40;95.80;;;;;;8392959;28;20063;-73
2021/01/14 01:00:11;;;;;;;1.88;1.20;;;1.40;96.00;;;;;;8373723;28;20044;-73
2021/01/14 01:04:13;;;;;;;8.52;3.05;;;1.40;95.70;;;;;;8392935;28;20094;-74
2021/01/14 01:08:15;;;;;;;;;;;1.40;96.10;;;;;;8402286;28;20059;-74
2021/01/14 01:12:16;;;;;;;4.15;1.55;;;1.50;94.90;;;;;;8410552;27;19924;-74
2021/01/14 01:16:18;;;;;;;6.57;3.28;;;1.50;95.60;;;;;;8381658;28;20051;-74
2021/01/14 01:20:20;;;;;;;5.97;2.78;;;1.50;96.10;;;;;;8375945;28;20086;-75
2021/01/14 01:24:21;;;;;;;6.53;2.35;;;1.50;95.80;;;;;;8376431;28;20082;-75
2021/01/14 01:28:23;;;;;;;6.90;1.73;;;1.20;95.10;;;;;;8382925;28;20044;-74
2021/01/14 01:32:24;;;;;;;9.37;3.30;;;1.50;95.10;;;;;;8394061;28;20461;-74
2021/01/14 01:36:26;;;;;;;3.40;1.70;;;1.50;96.00;;;;;;8384002;28;20472;-74
2021/01/14 01:40:27;;;;;;;5.53;2.60;;;1.50;95.90;;;;;;8372997;28;20517;-74
2021/01/14 01:44:28;;;;;;;4.47;2.30;;;1.50;96.10;;;;;;8384324;28;20052;-74
2021/01/14 01:48:30;;;;;;;10.20;2.60;;;2.40;96.60;;;;;;8376470;28;20067;-73
2021/01/14 01:52:33;;;;;;;6.22;2.55;;;1.50;96.10;;;;;;8382163;28;20461;-73
2021/01/14 01:56:36;;;;;;;3.28;1.38;;;1.50;96.40;;;;;;8396329;28;20044;-72
2021/01/14 02:00:37;;;;;;;4.72;1.98;;;2.00;96.50;;;;;;8374773;27;20101;-71
2021/01/14 02:04:39;;;;;;;5.60;2.65;;;1.50;96.40;;;;;;8396890;28;20452;-75
2021/01/14 02:08:59;;;;;;;5.78;2.30;;;1.50;96.60;;;;;;8381470;28;20155;-75
2021/01/14 02:13:18;;;;;;;6.22;2.25;;;1.50;96.70;;;;;;8412283;27;20416;-74
2021/01/14 02:17:19;;;;;;;6.50;2.95;;;1.40;96.30;;;;;;8379501;28;20586;-74
2021/01/14 02:21:27;;;;;;;9.82;3.03;;;2.00;97.20;;;;;;8377835;28;20409;-74
2021/01/14 02:25:37;;;;;;;7.00;3.15;;;1.50;97.20;;;;;;8378471;28;20501;-74
2021/01/14 02:29:40;;;;;;;8.63;2.95;;;2.40;97.40;;;;;;8409352;28;20052;-74
2021/01/14 02:33:42;;;;;;;10.02;2.75;;;1.50;97.30;;;;;;8394906;28;20165;-73
2021/01/14 02:37:43;;;;;;;7.03;3.05;;;1.50;97.30;;;;;;8401060;28;20336;-74
2021/01/14 02:41:45;;;;;;;10.47;2.80;;;1.00;97.00;;;;;;8392506;28;20109;-74
2021/01/14 02:45:47;;;;;;;6.13;2.53;;;1.50;95.80;;;;;;8391584;28;20100;-75
2021/01/14 02:50:01;;;;;;;6.40;2.80;;;2.10;97.20;;;;;;8390584;28;20300;-75
2021/01/14 02:54:04;;;;;;;3.40;1.30;;;1.50;97.00;;;;;;8413579;27;20330;-74
2021/01/14 02:58:06;;;;;;;8.13;2.88;;;2.50;96.80;;;;;;8363422;28;20493;-72
2021/01/14 03:02:07;;;;;;;8.40;2.33;;;1.40;96.80;;;;;;8394020;28;20051;-72
2021/01/14 03:06:09;;;;;;;9.40;3.00;;;1.40;97.00;;;;;;8394987;28;20052;-72
2021/01/14 03:10:11;;;;;;;11.70;2.15;;;1.40;96.90;;;;;;8376392;28;20144;-73
2021/01/14 03:14:14;;;;;;;6.15;2.30;;;1.40;96.60;;;;;;8373703;28;20502;-73
2021/01/14 03:18:15;;;;;;;6.57;2.70;;;1.30;96.80;;;;;;8404918;27;20081;-73
2021/01/14 03:22:17;;;;;;;5.43;2.37;;;1.30;97.10;;;;;;8379330;28;20054;-72
2021/01/14 03:26:19;;;;;;;8.32;2.80;;;1.30;96.80;;;;;;8383975;28;20932;-72
2021/01/14 03:30:21;;;;;;;5.15;2.50;;;1.30;97.00;;;;;;8392201;28;20039;-73
2021/01/14 03:34:22;;;;;;;3.53;1.30;;;1.30;97.20;;;;;;8397799;28;20080;-72
2021/01/14 03:38:24;;;;;;;6.45;2.63;;;1.20;96.70;;;;;;8380811;28;20044;-72
2021/01/14 03:42:25;;;;;;;4.20;2.60;;;1.20;97.10;;;;;;8394048;28;20044;-72
2021/01/14 03:46:29;;;;;;;7.37;2.83;;;1.50;97.30;;;;;;8369748;28;20071;-72
2021/01/14 03:50:30;;;;;;;5.43;2.50;;;1.10;97.20;;;;;;8382255;28;21064;-73
2021/01/14 03:54:32;;;;;;;7.97;2.83;;;1.10;97.40;;;;;;8379642;28;20048;-72
2021/01/14 03:58:34;;;;;;;5.25;2.83;;;1.50;97.60;;;;;;8378073;28;20251;-72
2021/01/14 04:02:35;;;;;;;5.35;3.00;;;1.40;97.30;;;;;;8369284;28;20445;-71
2021/01/14 04:06:37;;;;;;;6.18;2.78;;;0.90;97.30;;;;;;8384757;28;20056;-71
2021/01/14 04:10:39;;;;;;;3.55;1.10;;;0.70;97.40;;;;;;8375319;28;20044;-71
2021/01/14 04:14:40;;;;;;;5.00;2.40;;;0.80;97.40;;;;;;8400091;28;20056;-71
2021/01/14 04:18:42;;;;;;;5.87;2.50;;;0.90;98.00;;;;;;8375677;28;20464;-71
2021/01/14 04:22:43;;;;;;;6.57;3.10;;;0.80;98.10;;;;;;8378248;28;20405;-71
2021/01/14 04:26:48;;;;;;;8.20;3.10;;;0.70;98.30;;;;;;8370992;28;20501;-71
2021/01/14 04:30:50;;;;;;;5.40;2.60;;;0.80;98.70;;;;;;8363414;28;21127;-71
2021/01/14 04:34:51;;;;;;;6.18;2.95;;;0.90;98.70;;;;;;8375311;28;20579;-71
2021/01/14 04:38:52;;;;;;;5.72;2.55;;;0.80;98.50;;;;;;8395531;27;20063;-71
2021/01/14 04:42:55;;;;;;;8.45;2.90;;;0.90;98.50;;;;;;8367220;28;20044;-72
2021/01/14 04:47:11;;;;;;;5.15;3.08;;;0.70;98.60;;;;;;8397485;28;20732;-72
2021/01/14 04:51:18;;;;;;;5.57;2.95;;;0.80;98.20;;;;;;8373642;28;20044;-71
2021/01/14 04:55:21;;;;;;;4.38;2.67;;;1.40;98.70;;;;;;8387420;28;20551;-72
2021/01/14 04:59:24;;;;;;;8.13;2.70;;;0.50;98.50;;;;;;8379261;28;20052;-72
2021/01/14 05:03:27;;;;;;;5.50;2.60;;;0.60;98.40;;;;;;8380172;28;20055;-72
2021/01/14 05:07:33;;;;;;;5.38;2.78;;;1.10;98.40;;;;;;8359774;28;20506;-71
2021/01/14 05:11:43;;;;;;;8.00;2.67;;;0.70;98.70;;;;;;8388370;28;20333;-71
2021/01/14 05:15:45;;;;;;;5.25;2.80;;;0.70;98.70;;;;;;8393397;28;20059;-71
2021/01/14 05:19:47;;;;;;;7.88;3.22;;;0.70;99.00;;;;;;8381892;28;20050;-72
2021/01/14 05:23:49;;;;;;;5.90;2.88;;;0.70;98.70;;;;;;8381070;28;20458;-72
2021/01/14 05:27:50;;;;;;;7.90;3.43;;;0.70;98.90;;;;;;8386380;28;20097;-71
2021/01/14 05:31:52;;;;;;;6.83;3.23;;;0.70;98.90;;;;;;8391565;27;20792;-72
2021/01/14 05:35:54;;;;;;;9.63;3.08;;;0.60;98.80;;;;;;8376106;28;20484;-72
2021/01/14 05:39:55;;;;;;;4.63;2.50;;;0.80;98.90;;;;;;8360608;28;20044;-72
2021/01/14 05:44:02;;;;;;;6.22;3.20;;;0.70;98.60;;;;;;8393231;28;20044;-72
2021/01/14 05:48:08;;;;;;;6.72;3.45;;;1.00;98.70;;;;;;8377665;28;20121;-72
2021/01/14 05:52:11;;;;;;;8.63;3.22;;;1.00;98.90;;;;;;8380413;28;20047;-72
2021/01/14 05:56:15;;;;;;;11.25;3.42;;;0.80;98.90;;;;;;8369793;28;20051;-72
2021/01/14 06:00:17;;;;;;;6.40;3.03;;;1.30;98.80;;;;;;8387334;28;20056;-72
2021/01/14 06:04:20;;;;;;;5.28;3.22;;;1.00;98.50;;;;;;8379810;28;20051;-72
2021/01/14 06:08:27;;;;;;;7.45;2.92;;;1.00;98.30;;;;;;8377728;28;20466;-71
2021/01/14 06:12:28;;;;;;;5.80;3.40;;;1.60;98.60;;;;;;8396782;28;20452;-72
2021/01/14 06:16:30;;;;;;;7.15;2.70;;;1.00;98.70;;;;;;8367166;28;20052;-72
2021/01/14 06:20:35;;;;;;;10.25;3.33;;;1.00;98.30;;;;;;8377288;28;20579;-73
2021/01/14 06:24:39;;;;;;;10.68;3.00;;;1.90;98.40;;;;;;8400368;28;20056;-73
2021/01/14 06:28:41;;;;;;;6.68;2.65;;;0.90;98.50;;;;;;8406381;28;20517;-73
2021/01/14 06:32:46;;;;;;;7.22;3.10;;;1.00;98.30;;;;;;8385980;28;20054;-73
2021/01/14 06:36:49;;;;;;;7.40;3.58;;;-0.90;97.90;;;;;;8371543;28;20047;-73
2021/01/14 06:40:58;;;;;;;4.57;2.22;;;1.10;98.40;;;;;;8398827;27;20620;-73
2021/01/14 06:45:01;;;;;;;3.38;1.50;;;1.20;98.40;;;;;;8361093;28;20070;-73
2021/01/14 06:49:02;;;;;;;2.20;1.25;;;1.00;97.60;;;;;;8392873;28;20094;-72
2021/01/14 06:53:10;;;;;;;5.23;1.90;;;1.10;97.30;;;;;;8375405;28;20040;-72
2021/01/14 06:57:12;;;;;;;7.55;2.60;;;0.80;97.60;;;;;;8372294;28;20040;-72
2021/01/14 07:01:17;;;;;;;6.97;1.92;;;0.80;98.10;;;;;;8376931;28;20101;-73
2021/01/14 07:05:44;;;;;;;3.80;2.00;;;0.90;98.30;;;;;;8384646;28;20044;-72
2021/01/14 07:10:06;;;;;;;4.50;2.28;;;0.90;98.20;;;;;;8380743;28;20387;-72
2021/01/14 07:14:21;;;;;;;3.90;2.03;;;1.60;98.10;;;;;;8403557;27;20277;-72
2021/01/14 07:18:27;;;;;;;5.57;2.10;;;0.80;98.60;;;;;;8367246;28;20542;-71
2021/01/14 07:22:30;;;;;;;3.88;1.52;;;1.50;98.00;;;;;;8393438;28;20060;-71
2021/01/14 07:26:34;;;;;;;5.82;2.20;;;1.00;97.70;;;;;;8378840;28;20047;-71
2021/01/14 07:30:35;;;;;;;2.72;1.10;;;1.00;97.60;;;;;;8392888;28;20040;-71
2021/01/14 07:34:44;;;;;;;6.27;2.07;;;0.80;97.30;;;;;;8358624;28;20044;-71
2021/01/14 07:38:50;;;;;;;10.02;2.40;;;0.90;97.30;;;;;;8351509;28;20040;-71
2021/01/14 07:42:51;;;;;;;4.20;1.75;;;0.90;97.70;;;;;;8371392;28;20048;-71
2021/01/14 07:46:53;;;;;;;8.07;2.20;;;1.10;97.60;;;;;;8396933;28;20052;-71
2021/01/14 07:50:57;;;;;;;4.30;1.50;;;1.50;97.80;;;;;;8367713;28;20067;-71
2021/01/14 07:55:02;;;;;;;5.25;2.00;;;0.80;97.00;;;;;;8376014;27;20060;-71
2021/01/14 07:59:04;;;;;;;4.22;1.65;;;0.70;96.60;;;;;;8376786;28;20082;-71
2021/01/14 08:03:14;;;;;;;3.28;1.23;;;0.70;97.00;;;;;;8386408;28;20048;-71
2021/01/14 08:07:26;;;;;;;2.65;1.45;;;1.10;96.70;;;;;;8377603;28;20048;-71
2021/01/14 08:11:30;;;;;;;;;;;1.30;96.90;;;;;;8366419;28;20056;-71
2021/01/14 08:15:37;;;;;;;5.97;2.67;;;0.90;96.10;;;;;;8405175;28;19927;-65
2021/01/14 08:19:39;;;;;;;5.65;3.20;;;0.90;97.00;;;;;;8382579;28;20063;-66
2021/01/14 08:23:45;;;;;;;9.38;3.17;;;1.30;97.20;;;;;;8365652;28;20048;-66
2021/01/14 08:27:47;;;;;;;4.75;2.60;;;1.50;97.60;;;;;;8384418;28;20125;-66
2021/01/14 08:31:50;;;;;;;4.80;2.73;;;0.80;97.70;;;;;;8376580;28;20651;-67
2021/01/14 08:36:06;;;;;;;5.90;2.55;;;0.80;97.70;;;;;;8396821;28;20458;-66
2021/01/14 08:40:27;;;;;;;6.93;2.85;;;0.90;98.10;;;;;;8377714;28;20104;-66
2021/01/14 08:44:33;;;;;;;6.30;2.97;;;1.10;98.10;;;;;;8387005;28;20093;-66
2021/01/14 08:48:35;;;;;;;5.20;2.63;;;0.80;97.90;;;;;;8347997;28;20056;-67
2021/01/14 08:52:44;;;;;;;4.22;2.03;;;1.00;97.80;;;;;;8348762;28;20668;-66
2021/01/14 08:56:46;;;;;;;4.07;2.47;;;1.10;98.10;;;;;;8382087;28;20061;-67
2021/01/14 09:00:48;;;;;;;4.35;2.33;;;0.70;98.00;;;;;;8369759;28;20094;-66
2021/01/14 09:04:59;;;;;;;7.78;2.88;;;0.70;98.10;;;;;;8379418;28;20419;-67
2021/01/14 09:09:03;;;;;;;2.08;1.15;;;0.50;98.20;;;;;;8334742;28;20555;-67
2021/01/14 09:13:08;;;;;;;5.25;2.78;;;0.80;97.90;;;;;;8349804;28;20040;-67
2021/01/14 09:17:10;;;;;;;2.63;1.35;;;0.80;98.40;;;;;;8409081;28;20413;-67
2021/01/14 09:21:12;;;;;;;8.75;1.88;;;0.80;98.10;;;;;;8380591;28;20037;-67
2021/01/14 09:25:13;;;;;;;5.63;1.50;;;0.90;99.00;;;;;;8382644;28;21237;-67
2021/01/14 09:29:15;;;;;;;7.23;3.23;;;0.80;98.00;;;;;;8364022;28;20192;-67
2021/01/14 09:33:21;;;;;;;5.95;2.58;;;0.80;98.60;;;;;;8411538;28;20464;-67
2021/01/14 09:37:23;;;;;;;5.53;3.15;;;0.80;98.60;;;;;;8370398;28;20097;-67
2021/01/14 09:41:32;;;;;;;8.40;2.60;;;0.80;98.70;;;;;;8389363;28;20661;-67
2021/01/14 09:45:34;;;;;;;6.18;2.92;;;0.80;98.20;;;;;;8398132;28;20040;-67
2021/01/14 09:49:36;;;;;;;;;;;1.30;98.70;;;;;;8394850;28;20549;-67
2021/01/14 09:53:42;;;;;;;8.15;3.40;;;1.50;99.20;;;;;;8366484;28;19924;-67
2021/01/14 09:57:48;;;;;;;5.53;3.03;;;0.90;98.90;;;;;;8379089;28;20040;-67
2021/01/14 10:02:00;;;;;;;7.40;3.50;;;1.10;99.30;;;;;;8377318;28;20050;-68
2021/01/14 10:06:02;;;;;;;;;;;1.00;98.80;;;;;;8363016;28;20048;-68
2021/01/14 10:10:08;;;;;;;8.70;3.30;;;1.20;98.80;;;;;;8379328;28;19924;-67
2021/01/14 10:14:19;;;;;;;6.70;3.35;;;1.00;98.70;;;;;;8390790;28;20555;-67
2021/01/14 10:18:27;;;;;;;9.70;3.25;;;1.10;98.30;;;;;;8385726;28;20129;-68
2021/01/14 10:22:29;;;;;;;9.27;3.88;;;1.10;98.60;;;;;;8383806;28;20051;-68
2021/01/14 10:26:30;;;;;;;8.43;4.35;;;1.10;98.70;;;;;;8384988;28;20043;-68
2021/01/14 10:30:38;;;;;;;8.88;3.67;;;1.20;98.70;;;;;;8354491;28;20063;-68
2021/01/14 10:34:48;;;;;;;9.18;3.85;;;1.10;98.90;;;;;;8389396;28;20047;-68
2021/01/14 10:38:51;;;;;;;5.97;3.30;;;1.10;98.90;;;;;;8391619;28;20136;-67
2021/01/14 10:42:53;;;;;;;9.88;3.58;;;1.70;98.90;;;;;;8397935;28;20097;-68
2021/01/14 10:46:54;;;;;;;7.50;3.53;;;1.20;98.90;;;;;;8383025;28;20116;-67
2021/01/14 10:50:57;;;;;;;6.47;3.30;;;1.40;98.80;;;;;;8388830;28;20472;-68
2021/01/14 10:55:01;;;;;;;7.55;4.20;;;1.20;98.70;;;;;;8388293;28;20052;-68
2021/01/14 10:59:06;;;;;;;7.13;3.03;;;1.20;98.60;;;;;;8376818;28;20481;-68
2021/01/14 11:03:14;;;;;;;6.35;3.58;;;1.10;98.60;;;;;;8388520;28;20573;-68
2021/01/14 11:07:16;;;;;;;8.70;4.05;;;1.30;98.40;;;;;;8401406;28;20502;-68
2021/01/14 11:11:17;;;;;;;5.40;3.10;;;1.20;98.60;;;;;;8373815;28;20048;-68
2021/01/14 11:15:19;;;;;;;8.30;3.87;;;1.90;99.00;;;;;;8387083;28;20071;-68
2021/01/14 11:19:20;;;;;;;8.25;3.42;;;1.30;98.80;;;;;;8369453;28;20884;-67
2021/01/14 11:23:22;;;;;;;7.88;3.60;;;1.40;98.70;;;;;;8395919;28;20105;-69
2021/01/14 11:27:28;;;;;;;7.57;3.87;;;1.80;99.00;;;;;;8373886;28;20036;-68
2021/01/14 11:31:32;;;;;;;6.80;3.47;;;1.50;98.10;;;;;;8364704;28;20511;-68
2021/01/14 11:35:33;;;;;;;8.65;4.25;;;1.40;98.10;;;;;;8355166;28;20056;-68
2021/01/14 11:39:35;;;;;;;9.23;3.83;;;1.30;98.30;;;;;;8368327;28;20040;-68
2021/01/14 11:43:37;;;;;;;9.60;4.03;;;1.40;98.20;;;;;;8373375;28;20044;-68
2021/01/14 11:47:39;;;;;;;6.85;3.40;;;1.40;98.70;;;;;;8358817;28;20884;-68
2021/01/14 11:51:50;;;;;;;10.30;4.60;;;1.30;98.50;;;;;;8372679;28;20110;-68
2021/01/14 11:55:52;;;;;;;7.28;3.95;;;1.70;99.10;;;;;;8364987;28;20060;-68
2021/01/14 11:59:53;;;;;;;8.77;3.72;;;1.70;98.60;;;;;;8396583;28;20044;-69
2021/01/14 12:03:54;;;;;;;7.38;4.00;;;1.10;98.60;;;;;;8345992;28;20044;-69
2021/01/14 12:07:56;;;;;;;8.30;3.80;;;1.70;98.80;;;;;;8343488;28;20057;-69
2021/01/14 12:11:58;;;;;;;7.70;3.85;;;1.30;98.40;;;;;;8371798;28;20280;-68
2021/01/14 12:15:59;;;;;;;6.88;2.65;;;1.90;98.70;;;;;;8384580;28;20052;-69
2021/01/14 12:20:01;;;;;;;8.75;4.00;;;1.50;98.50;;;;;;8398808;28;20533;-68
2021/01/14 12:24:03;;;;;;;9.93;4.55;;;1.40;98.70;;;;;;8366627;28;20060;-68
2021/01/14 12:28:04;;;;;;;9.13;4.00;;;1.20;98.80;;;;;;8365084;28;20052;-68
2021/01/14 12:32:06;;;;;;;9.45;5.20;;;1.30;98.70;;;;;;8369830;28;20043;-69
2021/01/14 12:36:07;;;;;;;12.93;4.78;;;1.30;98.80;;;;;;8383687;28;20554;-69
2021/01/14 12:40:10;;;;;;;13.02;4.45;;;1.30;98.90;;;;;;8383796;28;20043;-69
2021/01/14 12:44:11;;;;;;;9.43;4.15;;;1.30;98.60;;;;;;8385092;28;20040;-68
2021/01/14 12:48:13;;;;;;;12.80;5.93;;;1.80;99.10;;;;;;8380852;28;20074;-69
2021/01/14 12:52:14;;;;;;;8.13;4.73;;;1.40;98.70;;;;;;8384680;28;20052;-69
2021/01/14 12:56:16;;;;;;;11.68;5.50;;;1.50;98.80;;;;;;8384653;28;20457;-69
2021/01/14 13:00:17;;;;;;;11.50;4.97;;;1.60;98.90;;;;;;8378835;28;20040;-69
2021/01/14 13:04:19;;;;;;;12.82;5.15;;;1.50;98.90;;;;;;8391859;28;20101;-69
2021/01/14 13:08:20;;;;;;;11.27;6.17;;;1.60;98.60;;;;;;8393964;28;20060;-69
2021/01/14 13:12:22;;;;;;;11.70;5.10;;;1.40;98.60;;;;;;8388972;28;20453;-68
2021/01/14 13:16:42;;;;;;;18.47;9.10;;;1.40;98.70;;;;;;8375377;28;20526;-69
2021/01/14 13:20:43;;;;;;;11.27;5.95;;;1.70;98.60;;;;;;8377605;28;20048;-69
2021/01/14 13:24:45;;;;;;;24.80;6.20;;;1.50;98.60;;;;;;8362409;28;20057;-69
2021/01/14 13:28:46;;;;;;;10.73;4.90;;;1.50;98.80;;;;;;8397288;28;20532;-69
2021/01/14 13:32:47;;;;;;;8.23;4.17;;;1.50;98.70;;;;;;8398618;28;20856;-69
2021/01/14 13:36:51;;;;;;;14.97;5.17;;;1.50;98.80;;;;;;8385456;28;20474;-69
2021/01/14 13:41:12;;;;;;;8.20;5.03;;;1.70;98.60;;;;;;8390036;28;20046;-69
2021/01/14 13:45:14;;;;;;;18.92;10.63;;;1.50;98.70;;;;;;8393597;28;20052;-69
2021/01/14 13:49:18;;;;;;;9.82;4.63;;;1.60;98.80;;;;;;8403287;28;20105;-69
2021/01/14 13:53:22;;;;;;;22.83;11.32;;;1.50;98.70;;;;;;8394629;28;20123;-69
2021/01/14 13:57:24;;;;;;;8.93;5.00;;;1.70;98.90;;;;;;8351350;28;20049;-69
2021/01/14 14:01:29;;;;;;;15.23;9.53;;;1.70;98.80;;;;;;8387828;28;20456;-69
2021/01/14 14:05:31;;;;;;;11.57;6.85;;;1.60;98.60;;;;;;8382062;28;20454;-69
2021/01/14 14:09:33;;;;;;;12.30;5.85;;;1.50;98.60;;;;;;8397970;28;20040;-69
2021/01/14 14:13:35;;;;;;;9.63;4.82;;;1.40;98.90;;;;;;8371183;28;20044;-69
2021/01/14 14:17:36;;;;;;;11.85;5.00;;;1.60;99.00;;;;;;8391567;28;20046;-69
2021/01/14 14:21:38;;;;;;;14.43;7.20;;;1.40;99.00;;;;;;8373395;28;20222;-69
2021/01/14 14:25:39;;;;;;;23.80;9.18;;;1.50;99.10;;;;;;8399974;28;20465;-69
2021/01/14 14:29:41;;;;;;;41.17;12.37;;;1.50;99.20;;;;;;8394651;28;20086;-69
2021/01/14 14:33:44;;;;;;;22.98;9.30;;;1.40;99.10;;;;;;8391701;28;20073;-68
2021/01/14 14:37:46;;;;;;;14.13;9.40;;;1.40;99.30;;;;;;8373724;28;20870;-69
2021/01/14 14:41:51;;;;;;;4.77;2.80;;;1.30;99.30;;;;;;8391581;28;22454;-70
2021/01/14 14:45:52;;;;;;;13.85;6.68;;;1.50;99.40;;;;;;8395391;28;20458;-70
2021/01/14 14:49:54;;;;;;;11.00;5.83;;;1.30;99.50;;;;;;8392139;28;20066;-68
2021/01/14 14:53:55;;;;;;;9.00;4.83;;;1.50;99.50;;;;;;8383361;28;21132;-69
2021/01/14 14:57:57;;;;;;;10.50;5.63;;;2.10;99.60;;;;;;8386091;28;20478;-68
2021/01/14 15:01:59;;;;;;;;;;;1.60;99.50;;;;;;8398817;28;20119;-68
2021/01/14 15:06:00;;;;;;;16.00;6.53;;;1.60;99.80;;;;;;8386569;28;19924;-69
2021/01/14 15:10:04;;;;;;;12.20;7.05;;;1.40;99.90;;;;;;8369808;28;20052;-69
2021/01/14 15:14:05;;;;;;;11.90;6.05;;;1.40;99.70;;;;;;8386909;28;20040;-68
2021/01/14 15:18:07;;;;;;;12.07;5.30;;;1.40;99.80;;;;;;8386540;28;20501;-68
2021/01/14 15:22:08;;;;;;;9.10;5.70;;;1.60;99.80;;;;;;8398670;28;20048;-68
2021/01/14 15:26:10;;;;;;;9.73;5.43;;;1.50;99.80;;;;;;8355123;28;20075;-69
2021/01/14 15:30:13;;;;;;;10.45;5.80;;;1.60;99.80;;;;;;8374074;28;20053;-69
2021/01/14 15:34:14;;;;;;;18.25;11.50;;;1.50;99.80;;;;;;8368972;28;20567;-69
2021/01/14 15:38:16;;;;;;;25.50;12.15;;;1.40;99.80;;;;;;8401999;28;20452;-69
2021/01/14 15:42:17;;;;;;;21.05;10.65;;;1.90;99.90;;;;;;8347209;28;21253;-69
2021/01/14 15:46:20;;;;;;;55.85;23.60;;;1.60;99.70;;;;;;8387266;28;20051;-69
2021/01/14 15:50:22;;;;;;;27.65;14.20;;;1.50;99.70;;;;;;8373084;28;20044;-69
2021/01/14 15:54:23;;;;;;;21.25;10.77;;;1.70;99.70;;;;;;8356566;28;20052;-69
2021/01/14 15:58:25;;;;;;;15.83;8.63;;;1.60;99.70;;;;;;8372418;28;20564;-69
2021/01/14 16:02:27;;;;;;;19.30;11.30;;;1.50;99.60;;;;;;8369341;28;21222;-69
2021/01/14 16:06:29;;;;;;;14.18;8.18;;;1.80;99.70;;;;;;8393567;28;20464;-69
2021/01/14 16:10:30;;;;;;;13.38;6.47;;;1.60;99.70;;;;;;8372303;28;21096;-69
2021/01/14 16:14:32;;;;;;;13.57;8.75;;;2.10;99.80;;;;;;8371523;28;20684;-67
2021/01/14 16:18:34;;;;;;;12.68;6.72;;;1.60;99.70;;;;;;8374853;28;20096;-68
2021/01/14 16:22:35;;;;;;;13.27;7.30;;;1.80;99.80;;;;;;8384496;28;20048;-68
2021/01/14 16:26:37;;;;;;;11.27;6.53;;;1.60;99.70;;;;;;8367675;28;20079;-68
2021/01/14 16:30:49;;;;;;;12.85;7.50;;;1.70;99.80;;;;;;8388770;28;20487;-69
2021/01/14 16:34:51;;;;;;;14.02;8.32;;;2.10;99.80;;;;;;8398622;28;20071;-69
2021/01/14 16:38:52;;;;;;;14.60;7.63;;;1.60;99.70;;;;;;8373519;28;20098;-69
2021/01/14 16:42:54;;;;;;;14.68;7.75;;;1.90;99.80;;;;;;8374765;28;20463;-69
2021/01/14 16:47:06;;;;;;;13.47;6.40;;;1.70;99.70;;;;;;8391650;27;20048;-69
2021/01/14 16:51:08;;;;;;;12.10;6.45;;;1.60;99.70;;;;;;8379264;28;20048;-68
2021/01/14 16:55:10;;;;;;;12.63;7.03;;;1.80;99.80;;;;;;8386113;28;20059;-69
2021/01/14 16:59:11;;;;;;;12.20;7.43;;;1.60;99.70;;;;;;8364385;28;20101;-68
2021/01/14 17:03:14;;;;;;;15.65;7.68;;;1.90;99.90;;;;;;8365513;28;20059;-69
2021/01/14 17:07:16;;;;;;;13.68;7.75;;;1.80;99.90;;;;;;8387103;27;20050;-68
2021/01/14 17:11:22;;;;;;;16.45;8.10;;;1.50;99.80;;;;;;8415663;28;20056;-68
2021/01/14 17:15:23;;;;;;;14.15;7.60;;;1.50;99.90;;;;;;8387411;28;20040;-68
2021/01/14 17:19:25;;;;;;;18.03;9.50;;;1.60;99.90;;;;;;8369613;28;20044;-69
2021/01/14 17:23:29;;;;;;;17.52;9.02;;;1.50;99.80;;;;;;8386352;28;20843;-69
2021/01/14 17:27:33;;;;;;;15.68;8.45;;;2.00;99.80;;;;;;8382103;28;20052;-68
2021/01/14 17:31:34;;;;;;;14.88;8.23;;;1.70;99.70;;;;;;8355255;28;20048;-68
2021/01/14 17:35:36;;;;;;;27.58;13.05;;;1.50;99.80;;;;;;8361306;28;20059;-69
2021/01/14 17:39:38;;;;;;;14.50;7.60;;;1.60;99.80;;;;;;8371490;28;20063;-69
2021/01/14 17:43:39;;;;;;;11.82;7.43;;;1.50;99.70;;;;;;8390214;28;20101;-68
2021/01/14 17:47:41;;;;;;;13.55;8.82;;;1.40;99.70;;;;;;8377850;28;20067;-69
2021/01/14 17:51:48;;;;;;;14.75;7.88;;;1.50;99.90;;;;;;8391835;28;20067;-69
2021/01/14 17:55:50;;;;;;;13.75;8.40;;;1.90;99.90;;;;;;8357312;28;20040;-67
2021/01/14 17:59:54;;;;;;;14.02;7.85;;;1.50;99.90;;;;;;8388627;28;20079;-68
2021/01/14 18:03:55;;;;;;;11.27;6.10;;;1.60;99.90;;;;;;8374467;28;20036;-68
2021/01/14 18:07:56;;;;;;;14.87;7.73;;;1.50;99.90;;;;;;8381933;28;20472;-69
2021/01/14 18:11:59;;;;;;;16.50;8.65;;;1.30;99.90;;;;;;8388390;28;20071;-69
2021/01/14 18:16:00;;;;;;;13.65;8.00;;;1.30;99.90;;;;;;8372460;28;20126;-68
2021/01/14 18:20:04;;;;;;;13.38;8.52;;;1.20;99.90;;;;;;8382402;28;20552;-68
2021/01/14 18:24:06;;;;;;;17.42;9.15;;;1.40;99.90;;;;;;8372985;28;20052;-68
2021/01/14 18:28:12;;;;;;;13.75;7.28;;;1.20;99.90;;;;;;8389644;28;20048;-68
2021/01/14 18:32:14;;;;;;;17.83;9.82;;;1.30;99.90;;;;;;8385218;28;20060;-68
2021/01/14 18:36:29;;;;;;;17.92;9.50;;;1.20;99.90;;;;;;8397241;28;20105;-68
2021/01/14 18:40:30;;;;;;;18.58;9.15;;;1.30;99.90;;;;;;8388134;28;20036;-68
2021/01/14 18:44:32;;;;;;;152.50;47.08;;;1.20;99.90;;;;;;8390293;28;20281;-68
2021/01/14 18:48:33;;;;;;;74.27;26.67;;;1.10;99.90;;;;;;8390783;28;20056;-68
2021/01/14 18:52:39;;;;;;;21.25;10.93;;;1.30;99.90;;;;;;8390951;28;20052;-68
2021/01/14 18:56:40;;;;;;;21.27;13.60;;;1.20;99.90;;;;;;8394538;28;20487;-68
2021/01/14 19:00:42;;;;;;;18.25;9.65;;;1.20;99.90;;;;;;8392661;28;20051;-68
2021/01/14 19:04:43;;;;;;;19.73;8.63;;;1.30;99.90;;;;;;8375473;28;20093;-68
2021/01/14 19:08:45;;;;;;;15.13;8.60;;;1.40;99.90;;;;;;8368093;28;20040;-68
2021/01/14 19:12:47;;;;;;;16.23;9.50;;;1.40;99.90;;;;;;8380854;28;20484;-67
2021/01/14 19:16:51;;;;;;;18.17;9.43;;;1.20;99.90;;;;;;8389137;28;20451;-68
2021/01/14 19:20:52;;;;;;;17.48;10.45;;;1.10;99.90;;;;;;8392936;28;20043;-69
2021/01/14 19:24:54;;;;;;;17.67;9.80;;;1.20;99.90;;;;;;8386390;28;20086;-68
2021/01/14 19:28:55;;;;;;;17.73;8.90;;;1.50;99.90;;;;;;8367296;28;20040;-68
2021/01/14 19:32:57;;;;;;;18.38;9.20;;;1.30;99.90;;;;;;8373162;28;20449;-72
2021/01/14 19:37:01;;;;;;;17.53;8.50;;;1.40;99.90;;;;;;8384151;28;20089;-72
2021/01/14 19:41:06;;;;;;;12.07;7.20;;;1.30;99.90;;;;;;8363439;28;20477;-72
2021/01/14 19:45:10;;;;;;;15.30;8.07;;;1.20;99.90;;;;;;8372896;28;20645;-72
2021/01/14 19:49:12;;;;;;;12.35;7.35;;;3.10;99.90;;;;;;8395118;28;20052;-72
2021/01/14 19:53:15;;;;;;;17.27;8.27;;;1.10;99.90;;;;;;8385090;28;20454;-73
2021/01/14 19:57:17;;;;;;;15.30;7.93;;;1.10;99.90;;;;;;8372135;28;20127;-73
2021/01/14 20:01:19;;;;;;;14.30;8.23;;;1.60;99.90;;;;;;8381622;28;20946;-73
2021/01/14 20:05:20;;;;;;;14.77;8.35;;;1.70;99.90;;;;;;8402677;28;20053;-72
2021/01/14 20:09:22;;;;;;;17.07;9.10;;;1.30;99.90;;;;;;8381653;28;20699;-73
2021/01/14 20:13:26;;;;;;;15.05;8.65;;;1.40;99.90;;;;;;8374574;28;20097;-72
2021/01/14 20:17:28;;;;;;;13.50;7.95;;;1.20;99.90;;;;;;8387919;28;20121;-71
2021/01/14 20:21:29;;;;;;;14.73;8.45;;;1.20;99.90;;;;;;8371259;28;20036;-72
2021/01/14 20:25:31;;;;;;;16.88;8.82;;;1.10;99.90;;;;;;8398753;28;20367;-72
2021/01/14 20:29:32;;;;;;;16.80;9.27;;;1.30;99.90;;;;;;8369048;28;20040;-72
2021/01/14 20:33:34;;;;;;;14.83;8.67;;;1.00;99.90;;;;;;8365858;28;20209;-72
2021/01/14 20:37:39;;;;;;;15.20;8.48;;;1.20;99.90;;;;;;8350566;28;20542;-72
2021/01/14 20:41:40;;;;;;;17.58;9.18;;;1.20;99.90;;;;;;8385745;28;20055;-72
2021/01/14 20:45:42;;;;;;;15.80;8.73;;;1.80;99.90;;;;;;8398304;28;20052;-72
2021/01/14 20:49:47;;;;;;;14.23;8.55;;;1.70;99.90;;;;;;8372626;28;20048;-73
2021/01/14 20:53:49;;;;;;;16.00;7.67;;;1.00;99.90;;;;;;8385020;28;20077;-72
2021/01/14 20:57:51;;;;;;;15.52;9.18;;;1.50;99.90;;;;;;8372228;28;20472;-72
2021/01/14 21:01:52;;;;;;;18.42;8.82;;;1.70;99.90;;;;;;8380713;28;20058;-72
2021/01/14 21:05:54;;;;;;;15.57;7.50;;;0.90;99.90;;;;;;8373765;28;20048;-73
2021/01/14 21:09:55;;;;;;;14.77;8.13;;;1.10;99.80;;;;;;8370190;28;20040;-72
2021/01/14 21:14:01;;;;;;;16.15;8.10;;;1.20;99.90;;;;;;8374340;28;20044;-72
2021/01/14 21:18:02;;;;;;;11.85;6.47;;;1.60;99.90;;;;;;8377063;28;20040;-72